TimeCST,TemperatureF,Dew PointF,Humidity,Sea Level PressureIn,VisibilityMPH,Wind Direction,Wind SpeedMPH,Gust SpeedMPH,PrecipitationIn,Events,Conditions,WindDirDegrees,DateUTC
12:53 AM,-9.9,-16.1,74,30.33,10.0,NW,9.2,-,N/A,,Clear,310,2013-01-20 06:53:00
1:53 AM,-9.0,-15.0,75,30.36,10.0,WNW,11.5,-,N/A,,Clear,290,2013-01-20 07:53:00
2:53 AM,-9.0,-15.0,75,30.39,10.0,WNW,11.5,-,N/A,,Clear,300,2013-01-20 08:53:00
3:53 AM,-9.9,-16.1,74,30.39,10.0,WNW,9.2,-,N/A,,Clear,300,2013-01-20 09:53:00
4:53 AM,-11.9,-17.0,78,30.40,10.0,WNW,8.1,-,N/A,,Clear,300,2013-01-20 10:53:00
5:53 AM,-16.1,-20.0,82,30.39,10.0,NW,4.6,-,N/A,,Clear,320,2013-01-20 11:53:00
6:53 AM,-17.0,-20.9,82,30.39,10.0,WNW,5.8,-,N/A,,Clear,300,2013-01-20 12:53:00
7:53 AM,-13.0,-18.9,75,30.41,10.0,West,6.9,-,N/A,,Clear,280,2013-01-20 13:53:00
8:53 AM,-9.9,-15.0,78,30.42,1.8,West,8.1,-,0.00,Snow,Light Snow,280,2013-01-20 14:53:00
9:18 AM,-9.4,-14.8,77,30.28,2.5,West,6.9,-,0.00,Snow,Light Snow,280,2013-01-20 15:18:00
9:37 AM,-7.6,-14.8,71,30.28,4.0,West,9.2,-,0.00,,Haze,280,2013-01-20 15:37:00
9:53 AM,-7.1,-13.0,75,30.43,4.0,West,10.4,-,0.00,,Haze,280,2013-01-20 15:53:00
10:53 AM,-5.1,-11.0,76,30.42,3.0,West,11.5,-,0.00,Snow,Light Snow,270,2013-01-20 16:53:00
11:53 AM,-2.0,-9.9,69,30.40,5.0,West,10.4,-,0.00,,Haze,280,2013-01-20 17:53:00
12:33 PM,-0.4,-9.4,66,30.24,6.0,West,15.0,-,N/A,,Haze,280,2013-01-20 18:33:00
12:53 PM,-0.0,-9.0,66,30.38,7.0,West,13.8,-,0.00,,Overcast,280,2013-01-20 18:53:00
1:53 PM,-0.0,-11.0,60,30.37,10.0,WNW,16.1,-,N/A,,Overcast,290,2013-01-20 19:53:00
2:53 PM,-0.9,-11.9,60,30.35,10.0,WNW,17.3,25.3,0.00,,Partly Cloudy,300,2013-01-20 20:53:00
3:10 PM,-0.4,-11.2,60,30.21,8.0,WNW,19.6,25.3,N/A,,Mostly Cloudy,290,2013-01-20 21:10:00
3:53 PM,-2.9,-13.0,62,30.35,10.0,WNW,15.0,-,N/A,,Scattered Clouds,300,2013-01-20 21:53:00
4:06 PM,-2.2,-13.0,60,30.21,10.0,WNW,16.1,-,N/A,,Mostly Cloudy,290,2013-01-20 22:06:00
4:24 PM,-4.0,-14.8,60,30.21,10.0,WNW,16.1,-,N/A,,Scattered Clouds,300,2013-01-20 22:24:00
4:53 PM,-6.0,-15.0,65,30.37,10.0,WNW,17.3,-,N/A,,Partly Cloudy,290,2013-01-20 22:53:00
5:53 PM,-7.1,-15.0,68,30.38,10.0,WNW,12.7,-,N/A,,Clear,290,2013-01-20 23:53:00
6:53 PM,-8.0,-16.1,68,30.37,10.0,WNW,13.8,-,N/A,,Clear,300,2013-01-21 00:53:00
7:53 PM,-9.0,-16.1,71,30.36,10.0,WNW,12.7,-,N/A,,Clear,300,2013-01-21 01:53:00
8:39 PM,-9.4,-16.6,71,30.20,10.0,WNW,13.8,-,N/A,,Mostly Cloudy,300,2013-01-21 02:39:00
8:53 PM,-9.0,-17.0,68,30.35,6.0,NW,11.5,-,N/A,,Haze,310,2013-01-21 02:53:00
9:53 PM,-11.0,-18.9,68,30.35,7.0,NW,16.1,-,N/A,,Overcast,310,2013-01-21 03:53:00
10:53 PM,-13.0,-20.9,68,30.36,7.0,NW,15.0,-,N/A,,Overcast,310,2013-01-21 04:53:00
11:20 PM,-14.8,-20.2,77,30.21,2.5,WNW,11.5,-,N/A,,Haze,300,2013-01-21 05:20:00
11:28 PM,-14.8,-22.0,70,30.22,5.0,WNW,15.0,-,N/A,,Haze,300,2013-01-21 05:28:00
11:53 PM,-15.0,-23.1,67,30.37,10.0,NW,13.8,-,N/A,,Overcast,310,2013-01-21 05:53:00